createdAt,value
2022-08-26T00:02:02.694Z,22.39
2022-08-26T00:04:31.436Z,22.38
2022-08-26T00:07:00.255Z,22.33
2022-08-26T00:09:30.413Z,22.23
2022-08-26T00:11:59.067Z,22.18
2022-08-26T00:14:31.176Z,22.17
2022-08-26T00:17:00.381Z,22.10
2022-08-26T00:19:29.272Z,22.12
2022-08-26T00:21:57.931Z,22.21
2022-08-26T00:24:26.593Z,22.28
2022-08-26T00:26:56.420Z,22.24
2022-08-26T00:29:25.169Z,22.25
2022-08-26T00:31:53.623Z,22.26
2022-08-26T00:34:22.183Z,22.30
2022-08-26T00:36:51.963Z,22.28
2022-08-26T00:39:21.098Z,22.14
2022-08-26T00:41:50.513Z,22.03
2022-08-26T00:44:21.611Z,21.99
2022-08-26T00:46:54.085Z,22.04
2022-08-26T00:49:31.275Z,21.99
2022-08-26T00:52:04.171Z,21.87
2022-08-26T00:54:40.392Z,21.80
2022-08-26T00:57:16.454Z,21.86
2022-08-26T00:59:48.305Z,21.83
2022-08-26T01:02:21.257Z,21.70
2022-08-26T01:04:54.242Z,21.65
2022-08-26T01:07:26.128Z,21.62
2022-08-26T01:09:55.604Z,21.66
2022-08-26T01:12:26.019Z,21.66
2022-08-26T01:14:56.857Z,21.56
2022-08-26T01:17:25.540Z,21.39
2022-08-26T01:20:03.617Z,21.33
2022-08-26T01:22:39.754Z,21.33
2022-08-26T01:25:10.164Z,21.31
2022-08-26T01:27:38.692Z,21.32
2022-08-26T01:30:08.587Z,21.36
2022-08-26T01:32:38.985Z,21.39
2022-08-26T01:35:09.283Z,21.40
2022-08-26T01:37:40.604Z,21.39
2022-08-26T01:40:17.789Z,21.37
2022-08-26T01:42:49.087Z,21.33
2022-08-26T01:45:20.971Z,21.27
2022-08-26T01:47:57.127Z,21.29
2022-08-26T01:50:30.720Z,21.33
2022-08-26T01:53:05.081Z,21.31
2022-08-26T01:55:35.493Z,21.32
2022-08-26T01:58:09.766Z,21.24
2022-08-26T02:00:39.230Z,21.18
2022-08-26T02:03:18.381Z,21.12
2022-08-26T02:05:51.388Z,21.13
2022-08-26T02:08:24.903Z,21.01
2022-08-26T02:10:54.761Z,20.96
2022-08-26T02:13:26.649Z,20.93
2022-08-26T02:15:56.559Z,20.90
2022-08-26T02:18:26.488Z,20.78
2022-08-26T02:20:57.099Z,20.76
2022-08-26T02:23:27.212Z,20.87
2022-08-26T02:25:59.075Z,20.94
2022-08-26T02:28:32.639Z,20.91
2022-08-26T02:31:02.725Z,21.01
2022-08-26T02:33:31.400Z,20.90
2022-08-26T02:35:59.903Z,20.98
2022-08-26T02:38:30.242Z,21.07
2022-08-26T02:40:59.127Z,21.13
2022-08-26T02:43:31.352Z,21.06
2022-08-26T02:46:02.643Z,20.99
2022-08-26T02:48:31.624Z,21.06
2022-08-26T02:51:02.640Z,21.08
2022-08-26T02:53:35.547Z,21.08
2022-08-26T02:56:05.224Z,21.15
2022-08-26T02:58:33.732Z,21.09
2022-08-26T03:01:04.765Z,21.12
2022-08-26T03:03:34.252Z,21.04
2022-08-26T03:06:02.878Z,20.91
2022-08-26T03:08:32.716Z,20.86
2022-08-26T03:11:01.562Z,20.87
2022-08-26T03:13:30.515Z,20.80
2022-08-26T03:16:01.808Z,20.56
2022-08-26T03:18:30.576Z,20.50
2022-08-26T03:20:59.167Z,20.47
2022-08-26T03:23:27.645Z,20.38
2022-08-26T03:25:58.476Z,20.37
2022-08-26T03:28:27.400Z,20.33
2022-08-26T03:30:55.101Z,20.34
2022-08-26T03:33:25.166Z,20.33
2022-08-26T03:35:54.812Z,20.24
2022-08-26T03:38:25.350Z,20.21
2022-08-26T03:40:54.055Z,20.18
2022-08-26T03:43:26.786Z,20.25
2022-08-26T03:45:55.223Z,20.33
2022-08-26T03:48:23.667Z,20.37
2022-08-26T03:50:52.136Z,20.38
2022-08-26T03:53:20.682Z,20.40
2022-08-26T03:55:51.760Z,20.38
2022-08-26T03:58:21.526Z,20.26
2022-08-26T04:00:55.666Z,20.26
2022-08-26T04:03:38.551Z,20.24
2022-08-26T04:06:08.052Z,20.24
2022-08-26T04:08:37.870Z,20.24
2022-08-26T04:11:07.679Z,20.21
2022-08-26T04:13:36.282Z,20.13
2022-08-26T04:16:06.704Z,20.05
2022-08-26T04:18:38.037Z,20.02
2022-08-26T04:21:15.664Z,20.09
2022-08-26T04:23:47.116Z,20.07
2022-08-26T04:26:16.552Z,20.00
2022-08-26T04:28:45.042Z,19.96
2022-08-26T04:31:16.638Z,20.00
2022-08-26T04:33:47.579Z,20.04
2022-08-26T04:36:20.117Z,20.11
2022-08-26T04:38:50.696Z,20.16
2022-08-26T04:41:20.731Z,20.15
2022-08-26T04:43:50.316Z,20.20
2022-08-26T04:46:24.435Z,20.22
2022-08-26T04:48:55.843Z,20.25
2022-08-26T04:51:28.020Z,20.25
2022-08-26T04:53:57.231Z,20.24
2022-08-26T04:56:26.500Z,20.23
2022-08-26T04:58:54.938Z,20.20
2022-08-26T05:01:24.985Z,20.22
2022-08-26T05:03:54.843Z,20.17
2022-08-26T05:06:23.431Z,20.10
2022-08-26T05:08:51.922Z,20.13
2022-08-26T05:11:22.175Z,20.19
2022-08-26T05:13:50.920Z,20.25
2022-08-26T05:16:19.628Z,20.27
2022-08-26T05:18:50.087Z,20.34
2022-08-26T05:21:20.593Z,20.44
2022-08-26T05:23:51.359Z,20.51
2022-08-26T05:26:23.043Z,20.57
2022-08-26T05:28:54.693Z,20.59
2022-08-26T05:31:25.560Z,20.60
2022-08-26T05:33:56.911Z,20.61
2022-08-26T05:36:27.601Z,20.66
2022-08-26T05:38:56.884Z,20.73
2022-08-26T05:41:34.289Z,20.77
2022-08-26T05:44:07.616Z,20.79
2022-08-26T05:46:38.193Z,20.83
2022-08-26T05:49:12.410Z,20.88
2022-08-26T05:51:45.817Z,20.91
2022-08-26T05:54:14.423Z,20.92
2022-08-26T05:56:51.266Z,20.86
2022-08-26T05:59:24.147Z,20.82
2022-08-26T06:01:54.615Z,20.76
2022-08-26T06:04:27.160Z,20.78
2022-08-26T06:06:58.527Z,20.82
2022-08-26T06:09:27.383Z,20.83
2022-08-26T06:11:58.723Z,20.86
2022-08-26T06:14:27.205Z,20.92
2022-08-26T06:16:55.635Z,20.95
2022-08-26T06:19:25.743Z,21.00
2022-08-26T06:22:22.546Z,21.06
2022-08-26T06:25:10.121Z,21.14
2022-08-26T06:27:38.701Z,21.24
2022-08-26T06:30:09.724Z,21.32
2022-08-26T06:32:38.227Z,21.38
2022-08-26T06:35:12.080Z,21.46
2022-08-26T06:37:41.229Z,21.53
2022-08-26T06:40:11.463Z,21.58
2022-08-26T06:42:40.044Z,21.65
2022-08-26T06:45:09.483Z,21.69
2022-08-26T06:47:39.968Z,21.74
2022-08-26T06:50:10.487Z,21.77
2022-08-26T06:52:41.895Z,21.89
2022-08-26T06:55:11.132Z,21.98
2022-08-26T06:57:41.143Z,22.06
2022-08-26T07:00:11.691Z,22.13
2022-08-26T07:02:41.064Z,22.22
2022-08-26T07:05:16.876Z,22.29
2022-08-26T07:07:45.291Z,22.37
2022-08-26T07:10:13.738Z,22.44
2022-08-26T07:12:42.406Z,22.53
2022-08-26T07:15:16.229Z,22.60
2022-08-26T07:17:44.663Z,22.71
2022-08-26T07:20:13.612Z,22.78
2022-08-26T07:22:43.767Z,22.85
2022-08-26T07:25:12.467Z,22.88
2022-08-26T07:27:40.937Z,22.94
2022-08-26T07:30:10.619Z,23.05
2022-08-26T07:32:43.451Z,23.10
2022-08-26T07:35:11.920Z,23.17
2022-08-26T07:37:40.696Z,23.28
2022-08-26T07:40:11.869Z,23.38
2022-08-26T07:42:41.064Z,23.44
2022-08-26T07:45:09.808Z,23.50
2022-08-26T07:47:38.275Z,23.56
2022-08-26T07:50:07.404Z,23.65
2022-08-26T07:52:37.598Z,23.76
2022-08-26T07:55:08.723Z,23.82
2022-08-26T07:57:38.762Z,23.87
2022-08-26T08:00:13.509Z,23.90
2022-08-26T08:02:44.571Z,23.90
2022-08-26T08:05:18.885Z,23.93
2022-08-26T08:07:47.849Z,23.98
2022-08-26T08:10:25.210Z,24.02
2022-08-26T08:12:57.649Z,24.05
2022-08-26T08:15:29.865Z,24.12
2022-08-26T08:18:00.643Z,24.20
2022-08-26T08:20:30.611Z,24.25
2022-08-26T08:23:00.319Z,24.26
2022-08-26T08:25:29.204Z,24.32
2022-08-26T08:27:59.432Z,24.35
2022-08-26T08:30:28.727Z,24.41
2022-08-26T08:32:57.315Z,24.51
2022-08-26T08:35:26.731Z,24.59
2022-08-26T08:37:55.500Z,24.66
2022-08-26T08:40:26.105Z,24.74
2022-08-26T08:43:00.796Z,24.84
2022-08-26T08:45:36.721Z,24.91
2022-08-26T08:48:12.772Z,24.92
2022-08-26T08:50:44.619Z,24.95
2022-08-26T08:53:18.547Z,24.99
2022-08-26T08:56:00.309Z,25.03
2022-08-26T08:58:44.224Z,25.12
2022-08-26T09:01:22.480Z,25.23
2022-08-26T09:04:03.512Z,25.34
2022-08-26T09:06:32.521Z,25.45
2022-08-26T09:09:03.779Z,25.53
2022-08-26T09:11:32.492Z,25.61
2022-08-26T09:14:02.484Z,25.71
2022-08-26T09:16:38.535Z,25.80
2022-08-26T09:19:19.301Z,25.85
2022-08-26T09:21:56.756Z,25.88
2022-08-26T09:24:28.505Z,25.92
2022-08-26T09:26:59.190Z,25.95
2022-08-26T09:29:31.660Z,26.01
2022-08-26T09:32:19.618Z,26.13
2022-08-26T09:34:57.302Z,26.20
2022-08-26T09:37:38.542Z,26.27
2022-08-26T09:40:34.855Z,26.37
2022-08-26T09:43:10.714Z,26.44
2022-08-26T09:45:49.941Z,26.50
2022-08-26T09:48:35.430Z,26.57
2022-08-26T09:51:06.978Z,26.64
2022-08-26T09:53:50.628Z,26.70
2022-08-26T09:56:27.515Z,26.77
2022-08-26T09:58:57.995Z,26.83
2022-08-26T10:01:32.151Z,26.91
2022-08-26T10:04:08.465Z,26.97
2022-08-26T10:06:41.438Z,27.02
2022-08-26T10:09:14.760Z,27.14
2022-08-26T10:11:54.137Z,27.24
2022-08-26T10:14:27.409Z,27.29
2022-08-26T10:17:02.308Z,27.34
2022-08-26T10:19:55.852Z,27.41
2022-08-26T10:22:32.473Z,27.52
2022-08-26T10:25:04.803Z,27.58
2022-08-26T10:27:48.365Z,27.69
2022-08-26T10:30:23.419Z,27.75
2022-08-26T10:32:54.486Z,27.83
2022-08-26T10:35:23.635Z,27.95
2022-08-26T10:37:56.571Z,28.08
2022-08-26T10:40:28.464Z,28.15
2022-08-26T10:43:09.972Z,28.24
2022-08-26T10:45:45.387Z,28.36
2022-08-26T10:48:18.338Z,28.47
2022-08-26T10:50:48.375Z,28.52
2022-08-26T10:53:25.142Z,28.53
2022-08-26T10:56:02.992Z,28.59
2022-08-26T10:58:48.269Z,28.66
2022-08-26T11:01:41.070Z,28.71
2022-08-26T11:04:22.542Z,28.79
2022-08-26T11:07:11.573Z,28.98
2022-08-26T11:09:45.621Z,29.06
2022-08-26T11:12:49.204Z,29.19
2022-08-26T11:15:51.147Z,29.35
2022-08-26T11:18:40.088Z,29.42
2022-08-26T11:21:49.393Z,29.50
2022-08-26T11:24:41.888Z,29.53
2022-08-26T11:27:12.932Z,29.52
2022-08-26T11:30:02.624Z,29.56
2022-08-26T11:32:50.825Z,29.69
2022-08-26T11:35:50.342Z,29.73
2022-08-26T11:38:29.256Z,29.73
2022-08-26T11:41:07.856Z,29.84
2022-08-26T11:43:39.096Z,30.02
2022-08-26T11:46:10.565Z,30.15
2022-08-26T11:48:41.552Z,30.26
2022-08-26T11:51:14.012Z,30.31
2022-08-26T11:53:47.184Z,30.25
2022-08-26T11:56:25.785Z,30.23
2022-08-26T11:58:57.819Z,30.28
2022-08-26T12:01:31.327Z,30.38
2022-08-26T12:04:01.455Z,30.34
2022-08-26T12:06:43.333Z,30.38
2022-08-26T12:09:24.965Z,30.47
2022-08-26T12:11:58.070Z,30.49
2022-08-26T12:14:27.662Z,30.38
2022-08-26T12:16:56.398Z,30.41
2022-08-26T12:19:27.471Z,30.47
2022-08-26T12:22:03.424Z,30.55
2022-08-26T12:24:32.088Z,30.66
2022-08-26T12:27:23.539Z,30.77
2022-08-26T12:30:03.619Z,30.91
2022-08-26T12:32:36.260Z,30.98
2022-08-26T12:35:08.400Z,30.92
2022-08-26T12:37:41.161Z,30.86
2022-08-26T12:40:34.359Z,30.75
2022-08-26T12:43:05.335Z,30.77
2022-08-26T12:45:36.425Z,30.86
2022-08-26T12:48:10.131Z,30.91
2022-08-26T12:50:45.163Z,30.90
2022-08-26T12:53:22.323Z,30.76
2022-08-26T12:55:53.978Z,30.80
2022-08-26T12:58:27.522Z,30.92
2022-08-26T13:00:57.732Z,31.05
2022-08-26T13:03:44.560Z,31.16
2022-08-26T13:06:29.695Z,31.17
2022-08-26T13:09:05.366Z,31.20
2022-08-26T13:11:36.368Z,31.32
2022-08-26T13:14:08.218Z,31.41
2022-08-26T13:16:37.884Z,31.46
2022-08-26T13:19:10.944Z,31.51
2022-08-26T13:21:44.767Z,31.57
2022-08-26T13:24:17.620Z,31.64
2022-08-26T13:26:48.995Z,31.67
2022-08-26T13:29:17.612Z,31.68
2022-08-26T13:31:47.203Z,31.65
2022-08-26T13:34:18.934Z,31.70
2022-08-26T13:36:47.530Z,31.74
2022-08-26T13:39:17.835Z,31.76
2022-08-26T13:41:46.472Z,31.76
2022-08-26T13:44:14.999Z,31.76
2022-08-26T13:49:12.880Z,31.79
2022-08-26T13:51:42.779Z,31.77
2022-08-26T13:54:11.264Z,31.72
2022-08-26T13:56:41.108Z,31.70
2022-08-26T13:59:09.935Z,31.68
2022-08-26T14:01:40.079Z,31.61
2022-08-26T14:04:08.698Z,31.55
2022-08-26T14:06:37.424Z,31.59
2022-08-26T14:09:06.488Z,31.47
2022-08-26T14:11:50.891Z,31.35
2022-08-26T14:14:25.703Z,31.29
2022-08-26T14:16:59.817Z,31.31
2022-08-26T14:19:30.398Z,31.41
2022-08-26T14:22:00.602Z,31.52
2022-08-26T14:24:30.041Z,31.61
2022-08-26T14:26:58.610Z,31.57
2022-08-26T14:29:28.496Z,31.40
2022-08-26T14:31:58.676Z,31.24
2022-08-26T14:34:27.169Z,31.11
2022-08-26T14:36:55.572Z,30.98
2022-08-26T14:39:23.997Z,30.93
2022-08-26T14:41:55.731Z,31.03
2022-08-26T14:44:28.219Z,31.17
2022-08-26T14:47:01.055Z,31.32
2022-08-26T14:49:31.177Z,31.45
2022-08-26T14:51:59.748Z,31.49
2022-08-26T14:54:28.828Z,31.54
2022-08-26T14:57:00.683Z,31.56
2022-08-26T14:59:31.319Z,31.63
2022-08-26T15:02:02.538Z,31.59
2022-08-26T15:04:31.696Z,31.49
2022-08-26T15:07:01.452Z,31.35
2022-08-26T15:09:32.663Z,31.20
2022-08-26T15:12:01.161Z,31.07
2022-08-26T15:14:32.930Z,30.95
2022-08-26T15:17:03.191Z,30.80
2022-08-26T15:19:31.631Z,30.70
2022-08-26T15:22:00.267Z,30.71
2022-08-26T15:24:30.011Z,30.75
2022-08-26T15:26:58.814Z,30.79
2022-08-26T15:29:27.307Z,30.80
2022-08-26T15:31:57.306Z,30.86
2022-08-26T15:34:27.621Z,30.88
2022-08-26T15:36:56.391Z,30.81
2022-08-26T15:39:24.995Z,30.69
2022-08-26T15:41:56.055Z,30.59
2022-08-26T15:44:28.072Z,30.49
2022-08-26T15:46:58.835Z,30.39
2022-08-26T15:49:29.101Z,30.28
2022-08-26T15:51:57.521Z,30.19
2022-08-26T15:54:26.097Z,30.12
2022-08-26T15:56:54.700Z,30.02
2022-08-26T15:59:23.591Z,29.93
2022-08-26T16:01:52.794Z,29.87
2022-08-26T16:04:21.647Z,29.82
2022-08-26T16:06:52.324Z,29.75
2022-08-26T16:09:24.340Z,29.70
2022-08-26T16:11:54.220Z,29.67
2022-08-26T16:14:23.533Z,29.71
2022-08-26T16:16:52.245Z,29.78
2022-08-26T16:19:21.539Z,29.82
2022-08-26T16:21:51.906Z,29.86
2022-08-26T16:24:24.901Z,29.89
2022-08-26T16:26:55.427Z,29.89
2022-08-26T16:29:24.442Z,29.89
2022-08-26T16:31:53.789Z,29.92
2022-08-26T16:34:22.794Z,29.91
2022-08-26T16:36:52.988Z,29.91
2022-08-26T16:39:21.484Z,29.87
2022-08-26T16:41:50.148Z,29.79
2022-08-26T16:44:19.561Z,29.76
2022-08-26T16:46:48.307Z,29.70
2022-08-26T16:49:17.065Z,29.66
2022-08-26T16:51:45.700Z,29.63
2022-08-26T16:54:15.543Z,29.59
2022-08-26T16:56:44.120Z,29.60
2022-08-26T16:59:12.548Z,29.60
2022-08-26T17:01:40.942Z,29.59
2022-08-26T17:04:09.479Z,29.58
2022-08-26T17:06:38.335Z,29.54
2022-08-26T17:09:06.927Z,29.43
2022-08-26T17:11:36.979Z,29.36
2022-08-26T17:14:06.355Z,29.32
2022-08-26T17:16:35.430Z,29.27
2022-08-26T17:19:05.485Z,29.20
2022-08-26T17:21:35.760Z,29.13
2022-08-26T17:24:04.686Z,29.04
2022-08-26T17:26:33.532Z,28.98
2022-08-26T17:29:03.452Z,28.90
2022-08-26T17:31:32.501Z,28.81
2022-08-26T17:34:01.077Z,28.73
2022-08-26T17:36:29.726Z,28.64
2022-08-26T17:38:59.075Z,28.55
2022-08-26T17:41:28.320Z,28.50
2022-08-26T17:43:57.303Z,28.45
2022-08-26T17:46:28.073Z,28.36
2022-08-26T17:48:56.715Z,28.30
2022-08-26T17:51:25.464Z,28.22
2022-08-26T17:53:54.011Z,28.13
2022-08-26T17:56:25.523Z,28.05
2022-08-26T17:58:56.520Z,28.00
2022-08-26T18:01:28.999Z,27.93
2022-08-26T18:04:00.476Z,27.89
2022-08-26T18:06:30.680Z,27.84
2022-08-26T18:08:59.796Z,27.81
2022-08-26T18:11:29.120Z,27.78
2022-08-26T18:13:57.585Z,27.78
2022-08-26T18:16:28.115Z,27.78
2022-08-26T18:18:56.677Z,27.70
2022-08-26T18:21:27.276Z,27.67
2022-08-26T18:23:56.228Z,27.62
2022-08-26T18:26:29.092Z,27.53
2022-08-26T18:28:58.155Z,27.44
2022-08-26T18:31:28.325Z,27.38
2022-08-26T18:34:00.169Z,27.29
2022-08-26T18:36:30.755Z,27.23
2022-08-26T18:38:59.775Z,27.19
2022-08-26T18:41:30.313Z,27.11
2022-08-26T18:43:59.484Z,27.00
2022-08-26T18:46:29.595Z,26.92
2022-08-26T18:48:59.145Z,26.87
2022-08-26T18:51:33.692Z,26.78
2022-08-26T18:54:05.428Z,26.70
2022-08-26T18:56:34.784Z,26.62
2022-08-26T18:59:03.864Z,26.56
2022-08-26T19:01:35.243Z,26.48
2022-08-26T19:04:06.082Z,26.43
2022-08-26T19:06:36.331Z,26.38
2022-08-26T19:09:06.657Z,26.33
2022-08-26T19:11:42.977Z,26.31
2022-08-26T19:14:15.188Z,26.25
2022-08-26T19:16:47.873Z,26.22
2022-08-26T19:19:16.972Z,26.20
2022-08-26T19:21:45.868Z,26.16
2022-08-26T19:24:17.617Z,26.09
2022-08-26T19:26:48.455Z,26.07
2022-08-26T19:31:52.593Z,26.07
2022-08-26T19:34:21.190Z,26.01
2022-08-26T19:36:50.482Z,25.97
2022-08-26T19:39:18.993Z,25.98
2022-08-26T19:41:47.884Z,25.94
2022-08-26T19:44:39.816Z,25.91
2022-08-26T19:47:11.081Z,25.84
2022-08-26T19:49:39.753Z,25.78
2022-08-26T19:52:08.764Z,25.71
2022-08-26T19:54:37.415Z,25.68
2022-08-26T19:57:06.352Z,25.64
2022-08-26T19:59:36.173Z,25.58
2022-08-26T20:02:08.474Z,25.56
2022-08-26T20:04:41.608Z,25.50
2022-08-26T20:07:12.908Z,25.49
2022-08-26T20:09:43.725Z,25.47
2022-08-26T20:12:12.224Z,25.46
2022-08-26T20:14:40.769Z,25.44
2022-08-26T20:17:09.313Z,25.39
2022-08-26T20:19:55.367Z,25.34
2022-08-26T20:22:25.562Z,25.32
2022-08-26T20:24:56.580Z,25.29
2022-08-26T20:27:35.573Z,25.24
2022-08-26T20:30:09.737Z,25.19
2022-08-26T20:32:38.814Z,25.15
2022-08-26T20:35:10.280Z,25.07
2022-08-26T20:37:40.793Z,24.92
2022-08-26T20:40:11.376Z,24.63
2022-08-26T20:42:40.405Z,24.49
2022-08-26T20:45:09.931Z,24.45
2022-08-26T20:47:38.510Z,24.17
2022-08-26T20:50:08.541Z,24.10
2022-08-26T20:52:37.043Z,24.14
2022-08-26T20:55:08.037Z,24.17
2022-08-26T20:57:37.324Z,24.27
2022-08-26T21:00:08.605Z,24.39
2022-08-26T21:02:37.501Z,24.52
2022-08-26T21:05:06.887Z,24.51
2022-08-26T21:07:36.002Z,24.34
2022-08-26T21:10:06.553Z,24.30
2022-08-26T21:12:35.529Z,24.11
2022-08-26T21:15:04.419Z,23.89
2022-08-26T21:17:32.863Z,23.78
2022-08-26T21:20:02.460Z,23.58
2022-08-26T21:22:31.132Z,23.43
2022-08-26T21:24:59.551Z,23.24
2022-08-26T21:27:29.408Z,23.11
2022-08-26T21:29:58.095Z,23.12
2022-08-26T21:32:26.659Z,23.16
2022-08-26T21:34:56.923Z,23.12
2022-08-26T21:37:26.556Z,22.99
2022-08-26T21:39:56.064Z,22.77
2022-08-26T21:42:26.319Z,22.52
2022-08-26T21:44:56.218Z,22.47
2022-08-26T21:47:25.472Z,22.40
2022-08-26T21:49:54.293Z,22.31
2022-08-26T21:52:22.891Z,22.36
2022-08-26T21:54:51.371Z,22.46
2022-08-26T21:57:20.876Z,22.55
2022-08-26T21:59:49.316Z,22.47
2022-08-26T22:02:19.903Z,22.36
2022-08-26T22:04:49.065Z,22.33
2022-08-26T22:07:19.152Z,22.51
2022-08-26T22:09:48.620Z,22.59
2022-08-26T22:12:18.349Z,22.60
2022-08-26T22:14:47.146Z,22.63
2022-08-26T22:17:16.957Z,22.63
2022-08-26T22:19:47.011Z,22.69
2022-08-26T22:22:15.824Z,22.80
2022-08-26T22:24:44.404Z,22.86
2022-08-26T22:27:14.093Z,22.92
2022-08-26T22:29:42.727Z,23.02
2022-08-26T22:32:11.337Z,23.07
2022-08-26T22:34:40.724Z,23.07
2022-08-26T22:37:10.848Z,23.06
2022-08-26T22:39:39.485Z,23.06
2022-08-26T22:42:07.999Z,23.07
2022-08-26T22:44:37.573Z,23.03
2022-08-26T22:47:06.370Z,22.99
2022-08-26T22:49:34.978Z,22.91
2022-08-26T22:52:04.208Z,22.78
2022-08-26T22:54:34.327Z,22.70
2022-08-26T22:57:03.289Z,22.63
2022-08-26T22:59:32.369Z,22.49
2022-08-26T23:02:02.543Z,22.45
2022-08-26T23:04:31.367Z,22.42
2022-08-26T23:07:03.598Z,22.41
2022-08-26T23:09:33.965Z,22.42
2022-08-26T23:12:03.386Z,22.42
2022-08-26T23:14:33.699Z,22.37
2022-08-26T23:17:02.556Z,22.16
2022-08-26T23:19:31.208Z,22.07
2022-08-26T23:22:00.072Z,22.07
2022-08-26T23:24:28.648Z,22.21
2022-08-26T23:26:58.801Z,22.25
2022-08-26T23:29:29.032Z,22.21
2022-08-26T23:31:57.886Z,22.27
2022-08-26T23:34:44.131Z,22.29
2022-08-26T23:37:14.652Z,22.26
2022-08-26T23:39:44.023Z,22.18
2022-08-26T23:42:14.249Z,22.09
2022-08-26T23:44:43.047Z,22.05
2022-08-26T23:47:12.820Z,22.18
2022-08-26T23:49:41.915Z,22.30
2022-08-26T23:52:28.680Z,22.41
2022-08-26T23:54:58.149Z,22.35
2022-08-26T23:57:28.553Z,22.22
2022-08-26T23:59:58.004Z,22.20
